createdAt,value
2023-03-17T00:04:14.784Z,101708.38
2023-03-17T00:09:14.113Z,101669.63
2023-03-17T00:14:11.083Z,101602.59
2023-03-17T00:19:13.980Z,101639.13
2023-03-17T00:24:14.735Z,101709.28
2023-03-17T00:29:12.677Z,101699.09
2023-03-17T00:34:11.810Z,101657.97
2023-03-17T00:39:16.987Z,101724.22
2023-03-17T00:44:14.537Z,101727.84
2023-03-17T00:54:14.036Z,101667.81
2023-03-17T00:59:19.818Z,101735.88
2023-03-17T01:04:17.524Z,101711.53
2023-03-17T01:09:18.709Z,101688.09
2023-03-17T01:14:16.510Z,101722.34
2023-03-17T01:19:13.926Z,101715.41
2023-03-17T01:24:10.761Z,101673.13
2023-03-17T01:29:08.465Z,101686.09
2023-03-17T01:34:05.543Z,101728.34
2023-03-17T01:39:04.760Z,101722.38
2023-03-17T01:44:01.863Z,101746.56
2023-03-17T01:49:17.451Z,101756.19
2023-03-17T01:54:17.049Z,101773.59
2023-03-17T01:59:19.431Z,101764.25
2023-03-17T02:04:18.795Z,101717.56
2023-03-17T02:09:16.721Z,101768.41
2023-03-17T02:14:14.015Z,101795.25
2023-03-17T02:19:11.209Z,101772.81
2023-03-17T02:24:22.998Z,101799.66
2023-03-17T02:29:21.429Z,101805.84
2023-03-17T02:34:18.368Z,101808.47
2023-03-17T02:39:17.036Z,101791.34
2023-03-17T02:44:14.500Z,101786.13
2023-03-17T02:49:14.294Z,101827.47
2023-03-17T02:54:11.206Z,101839.34
2023-03-17T02:59:08.833Z,101845.09
2023-03-17T03:04:06.895Z,101846.69
2023-03-17T03:09:04.014Z,101809.59
2023-03-17T03:14:00.746Z,101848.41
2023-03-17T03:18:57.617Z,101862.22
2023-03-17T03:23:55.365Z,101794.78
2023-03-17T03:28:52.234Z,101815.28
2023-03-17T03:33:49.052Z,101865.09
2023-03-17T03:38:48.645Z,101846.88
2023-03-17T03:43:46.122Z,101808.75
2023-03-17T03:48:43.178Z,101865.72
2023-03-17T03:53:40.317Z,101863.19
2023-03-17T03:58:37.207Z,101880.38
2023-03-17T04:03:34.886Z,101775.06
2023-03-17T04:08:32.167Z,101869.69
2023-03-17T04:13:29.030Z,101851.53
2023-03-17T04:18:25.863Z,101879.91
2023-03-17T04:23:23.415Z,101894.69
2023-03-17T04:28:21.845Z,101854.28
2023-03-17T04:33:19.782Z,101853.47
2023-03-17T04:38:16.621Z,101900.75
2023-03-17T04:43:14.237Z,101916.25
2023-03-17T04:48:11.152Z,101887.56
2023-03-17T04:53:08.481Z,101893.47
2023-03-17T04:58:06.313Z,101888.81
2023-03-17T05:03:09.085Z,101826.59
2023-03-17T05:08:13.717Z,101852.13
2023-03-17T05:13:10.884Z,101878.56
2023-03-17T05:18:08.951Z,101862.06
2023-03-17T05:23:05.913Z,101941.88
2023-03-17T05:28:03.224Z,101894.19
2023-03-17T05:33:00.357Z,101959.56
2023-03-17T05:38:00.639Z,101913.66
2023-03-17T05:43:04.311Z,101957.56
2023-03-17T05:48:11.729Z,101926.28
2023-03-17T05:53:10.050Z,101979.66
2023-03-17T05:58:07.327Z,101928.50
2023-03-17T06:03:05.039Z,101933.03
2023-03-17T06:08:01.904Z,102001.56
2023-03-17T06:13:00.398Z,102001.84
2023-03-17T06:18:00.394Z,101967.19
2023-03-17T06:23:05.041Z,102010.78
2023-03-17T06:28:08.769Z,102028.66
2023-03-17T06:33:08.820Z,101983.53
2023-03-17T06:38:09.022Z,101907.19
2023-03-17T06:43:06.934Z,102037.03
2023-03-17T06:48:04.182Z,101977.84
2023-03-17T06:53:01.269Z,102004.25
2023-03-17T06:58:07.347Z,101990.31
2023-03-17T07:03:05.299Z,102006.72
2023-03-17T07:08:02.069Z,102047.50
2023-03-17T07:12:59.032Z,102052.19
2023-03-17T07:17:56.032Z,102038.88
2023-03-17T07:22:53.446Z,102059.19
2023-03-17T07:27:51.360Z,101966.75
2023-03-17T07:32:48.813Z,102020.75
2023-03-17T07:37:45.601Z,102046.38
2023-03-17T07:42:43.049Z,102036.97
2023-03-17T07:47:40.091Z,102022.03
2023-03-17T07:52:37.986Z,102012.16
2023-03-17T07:57:34.819Z,102034.38
2023-03-17T08:02:36.109Z,102033.91
2023-03-17T08:07:38.519Z,101955.59
2023-03-17T08:12:35.980Z,102023.69
2023-03-17T08:17:36.039Z,101936.56
2023-03-17T08:22:36.225Z,101991.06
2023-03-17T08:27:34.907Z,101947.81
2023-03-17T08:32:31.945Z,102003.16
2023-03-17T08:37:37.290Z,101968.16
2023-03-17T08:42:34.822Z,101985.50
2023-03-17T08:47:35.573Z,101987.22
2023-03-17T08:52:41.908Z,101972.06
2023-03-17T08:57:39.138Z,102025.66
2023-03-17T09:02:37.310Z,102021.50
2023-03-17T09:07:37.912Z,102033.06
2023-03-17T09:12:35.804Z,102033.78
2023-03-17T09:17:32.606Z,102001.00
2023-03-17T09:22:29.472Z,102020.31
2023-03-17T09:27:27.010Z,102019.06
2023-03-17T09:32:23.796Z,102027.38
2023-03-17T09:37:20.868Z,102019.91
2023-03-17T09:42:34.443Z,102021.97
2023-03-17T09:47:57.004Z,102023.97
2023-03-17T09:52:56.218Z,102015.59
2023-03-17T09:57:56.120Z,102010.13
2023-03-17T10:02:53.686Z,101999.63
2023-03-17T10:07:59.034Z,102007.84
2023-03-17T10:13:05.642Z,102009.19
2023-03-17T10:18:08.894Z,102010.75
2023-03-17T10:23:10.075Z,101967.13
2023-03-17T10:28:22.565Z,102004.88
2023-03-17T10:33:20.628Z,101985.28
2023-03-17T10:38:19.182Z,102001.84
2023-03-17T10:43:21.184Z,101995.88
2023-03-17T10:48:20.119Z,101987.31
2023-03-17T10:53:21.063Z,101935.22
2023-03-17T10:58:22.099Z,101932.59
2023-03-17T11:03:24.066Z,101953.44
2023-03-17T11:08:22.609Z,101967.66
2023-03-17T11:13:20.433Z,101951.69
2023-03-17T11:18:21.964Z,101925.88
2023-03-17T11:23:32.636Z,101909.25
2023-03-17T11:28:35.318Z,101964.63
2023-03-17T11:33:48.075Z,101940.81
2023-03-17T11:38:56.401Z,101918.34
2023-03-17T11:44:07.497Z,101911.69
2023-03-17T11:49:11.622Z,101890.66
2023-03-17T11:54:13.728Z,101879.22
2023-03-17T11:59:25.802Z,101961.03
2023-03-17T12:04:30.136Z,101962.50
2023-03-17T12:09:32.512Z,101938.66
2023-03-17T12:14:36.745Z,101918.47
2023-03-17T12:19:41.853Z,101895.72
2023-03-17T12:24:43.104Z,101890.59
2023-03-17T12:29:46.668Z,101948.59
2023-03-17T12:34:50.342Z,101936.09
2023-03-17T12:39:55.056Z,101955.00
2023-03-17T12:45:14.337Z,101962.19
2023-03-17T12:50:39.713Z,101934.00
2023-03-17T12:55:37.077Z,101949.13
2023-03-17T13:00:50.024Z,101930.69
2023-03-17T13:05:53.150Z,101892.91
2023-03-17T13:10:50.650Z,101952.94
2023-03-17T13:15:58.234Z,101954.03
2023-03-17T13:21:12.261Z,101955.88
2023-03-17T13:26:16.893Z,101951.81
2023-03-17T13:31:36.326Z,101907.22
2023-03-17T13:36:47.271Z,101920.69
2023-03-17T13:42:15.722Z,101934.19
2023-03-17T13:47:31.361Z,101928.97
2023-03-17T13:52:32.516Z,101877.94
2023-03-17T13:57:43.162Z,101890.09
2023-03-17T14:02:43.252Z,101932.56
2023-03-17T14:07:50.020Z,101899.16
2023-03-17T14:12:55.374Z,101841.53
2023-03-17T14:18:10.424Z,101904.63
2023-03-17T14:23:09.260Z,101881.22
2023-03-17T14:28:11.065Z,101916.50
2023-03-17T14:33:21.473Z,101930.03
2023-03-17T14:38:21.431Z,101927.06
2023-03-17T14:43:18.294Z,101856.88
2023-03-17T14:48:21.228Z,101880.75
2023-03-17T14:53:19.227Z,101925.97
2023-03-17T14:58:23.472Z,101929.59
2023-03-17T15:03:25.633Z,101923.72
2023-03-17T15:08:40.324Z,101922.19
2023-03-17T15:13:38.457Z,101839.75
2023-03-17T15:18:38.609Z,101839.81
2023-03-17T15:23:45.023Z,101917.50
2023-03-17T15:28:43.844Z,101893.00
2023-03-17T15:33:43.410Z,101887.53
2023-03-17T15:38:40.630Z,101887.00
2023-03-17T15:43:37.966Z,101920.81
2023-03-17T15:48:36.304Z,101923.81
2023-03-17T15:53:34.559Z,101903.44
2023-03-17T15:58:34.512Z,101868.59
2023-03-17T16:03:34.238Z,101874.06
2023-03-17T16:08:34.122Z,101826.38
2023-03-17T16:13:34.197Z,101894.69
2023-03-17T16:18:34.338Z,101918.97
2023-03-17T16:23:35.344Z,101927.19
2023-03-17T16:28:34.349Z,101931.00
2023-03-17T16:33:35.858Z,101926.25
2023-03-17T16:38:34.378Z,101910.91
2023-03-17T16:43:37.573Z,101894.97
2023-03-17T16:48:40.599Z,101891.00
2023-03-17T16:53:37.485Z,101922.31
2023-03-17T16:58:39.872Z,101926.00
2023-03-17T17:03:37.259Z,101905.56
2023-03-17T17:08:34.303Z,101934.34
2023-03-17T17:13:37.214Z,101923.06
2023-03-17T17:18:41.128Z,101931.81
2023-03-17T17:23:38.373Z,101917.97
2023-03-17T17:28:39.061Z,101965.97
2023-03-17T17:33:37.046Z,101968.44
2023-03-17T17:38:34.068Z,101890.75
2023-03-17T17:43:32.150Z,101879.59
2023-03-17T17:48:30.016Z,101946.66
2023-03-17T17:53:29.145Z,101984.38
2023-03-17T17:58:26.474Z,101911.91
2023-03-17T18:03:24.748Z,101948.75
2023-03-17T18:08:27.587Z,101952.16
2023-03-17T18:13:27.687Z,101927.19
2023-03-17T18:18:34.939Z,101991.56
2023-03-17T18:23:38.561Z,101943.28
2023-03-17T18:28:36.107Z,101940.81
2023-03-17T18:33:33.467Z,101970.97
2023-03-17T18:38:31.390Z,101968.19
2023-03-17T18:43:29.942Z,101900.38
2023-03-17T18:48:29.290Z,102011.50
2023-03-17T18:53:26.632Z,102013.22
2023-03-17T18:58:23.899Z,101920.34
2023-03-17T19:03:33.026Z,102009.22
2023-03-17T19:08:30.003Z,101897.09
2023-03-17T19:13:27.381Z,102035.03
2023-03-17T19:18:26.957Z,102031.63
2023-03-17T19:23:24.194Z,101962.72
2023-03-17T19:28:21.450Z,102018.72
2023-03-17T19:33:23.628Z,101962.59
2023-03-17T19:38:22.752Z,101981.75
2023-03-17T19:43:36.802Z,102007.75
2023-03-17T19:48:40.076Z,101979.63
2023-03-17T19:53:39.219Z,101931.69
2023-03-17T19:58:36.174Z,102003.69
2023-03-17T20:03:34.568Z,101988.47
2023-03-17T20:08:31.511Z,101926.63
2023-03-17T20:13:28.979Z,102017.31
2023-03-17T20:18:26.046Z,101982.91
2023-03-17T20:23:24.295Z,102014.75
2023-03-17T20:28:21.525Z,101955.06
2023-03-17T20:33:19.158Z,101946.44
2023-03-17T20:38:16.006Z,101967.66
2023-03-17T20:48:27.308Z,102005.97
2023-03-17T20:53:24.253Z,101975.66
2023-03-17T20:58:22.550Z,102007.50
2023-03-17T21:03:19.510Z,101992.84
2023-03-17T21:08:17.074Z,101949.69
2023-03-17T21:13:17.247Z,101947.00
2023-03-17T21:18:14.116Z,101935.59
2023-03-17T21:23:13.557Z,101984.50
2023-03-17T21:28:13.010Z,101955.13
2023-03-17T21:33:11.007Z,101996.38
2023-03-17T21:38:10.271Z,101999.84
2023-03-17T21:43:09.489Z,101943.84
2023-03-17T21:48:07.140Z,101965.56
2023-03-17T21:53:04.614Z,101989.72
2023-03-17T21:58:02.005Z,101969.97
2023-03-17T22:03:01.273Z,101994.16
2023-03-17T22:07:59.056Z,101968.25
2023-03-17T22:12:58.984Z,101981.09
2023-03-17T22:17:57.124Z,101945.81
2023-03-17T22:22:53.945Z,101963.94
2023-03-17T22:27:53.029Z,101992.41
2023-03-17T22:32:50.461Z,101971.84
2023-03-17T22:37:47.331Z,101979.53
2023-03-17T22:42:44.114Z,101982.09
2023-03-17T22:47:41.757Z,101996.84
2023-03-17T22:52:38.550Z,101948.56
2023-03-17T22:57:35.580Z,101950.34
2023-03-17T23:02:32.385Z,101992.53
2023-03-17T23:07:44.309Z,101942.63
2023-03-17T23:12:47.968Z,101994.38
2023-03-17T23:17:45.556Z,101925.44
2023-03-17T23:22:43.428Z,101990.03
2023-03-17T23:27:40.790Z,101940.00
2023-03-17T23:32:37.820Z,101967.66
2023-03-17T23:37:34.795Z,101973.91
2023-03-17T23:42:33.052Z,101899.38
2023-03-17T23:47:29.989Z,101922.28
2023-03-17T23:52:27.533Z,101921.59
2023-03-17T23:57:24.966Z,101960.47
